Time;durP1;ratioP1;P1;durP2;ratioP2;P2;SDS_P1;SDS_P2;PMS_P1;PMS_P2;Temp;Humidity;BMP_temperature;BMP_pressure;BME280_temperature;BME280_humidity;BME280_pressure;Samples;Min_cycle;Max_cycle;Signal;HPM_P1;HPM_P2
2022/06/01 00:01:59;;;;;;;1.10;0.60;;;14.20;99.90;;;;;;4833087;29;20049;-88
2022/06/01 00:04:25;;;;;;;2.03;0.77;;;13.90;99.90;;;;;;4826036;29;20030;-89
2022/06/01 00:06:51;;;;;;;1.08;0.50;;;13.90;99.90;;;;;;4831986;29;20030;-88
2022/06/01 00:09:16;;;;;;;1.23;0.50;;;13.70;99.90;;;;;;4831085;29;20060;-88
2022/06/01 00:11:45;;;;;;;1.08;0.40;;;14.30;99.90;;;;;;4832181;29;20061;-88
2022/06/01 00:14:11;;;;;;;3.85;0.88;;;13.90;99.90;;;;;;4833477;29;20065;-89
2022/06/01 00:16:37;;;;;;;2.38;0.75;;;13.90;99.90;;;;;;4831054;29;20045;-88
2022/06/01 00:19:03;;;;;;;1.85;0.60;;;13.90;99.90;;;;;;4842925;29;20563;-88
2022/06/01 00:22:11;;;;;;;1.70;0.70;;;13.70;99.90;;;;;;4847495;29;20041;-89
2022/06/01 00:24:24;;;;;;;1.77;0.70;;;13.80;99.90;;;;;;4830221;29;20074;-88
2022/06/01 00:26:53;;;;;;;1.25;0.50;;;13.80;99.90;;;;;;4828221;29;20475;-88
2022/06/01 00:29:19;;;;;;;1.58;0.60;;;13.70;99.90;;;;;;4833174;29;20044;-89
2022/06/01 00:31:45;;;;;;;1.30;0.60;;;13.60;99.90;;;;;;4832846;29;20050;-88
2022/06/01 00:34:11;;;;;;;1.83;0.77;;;13.60;99.90;;;;;;4826804;29;20041;-88
2022/06/01 00:36:36;;;;;;;1.50;0.70;;;13.50;99.90;;;;;;4830255;29;20395;-89
2022/06/01 00:39:04;;;;;;;1.40;0.63;;;13.60;99.90;;;;;;4833676;29;20078;-89
2022/06/01 00:41:30;;;;;;;2.35;0.70;;;12.90;99.90;;;;;;4822546;29;20030;-89
2022/06/01 00:43:56;;;;;;;2.47;0.70;;;13.50;99.90;;;;;;4833208;29;20037;-88
2022/06/01 00:46:21;;;;;;;1.10;0.60;;;12.70;99.90;;;;;;4834900;29;20034;-89
2022/06/01 00:48:54;;;;;;;1.85;0.70;;;14.10;99.90;;;;;;4830082;29;20186;-88
2022/06/01 00:51:24;;;;;;;1.20;0.60;;;13.50;99.90;;;;;;4831981;29;20072;-88
2022/06/01 00:53:52;;;;;;;0.98;0.60;;;13.40;99.90;;;;;;4826927;29;20046;-89
2022/06/01 00:56:22;;;;;;;1.33;0.50;;;13.30;99.90;;;;;;4827158;29;20041;-88
2022/06/01 00:58:51;;;;;;;1.50;0.50;;;13.60;99.90;;;;;;4839508;29;20121;-88
2022/06/01 01:01:22;;;;;;;1.60;0.80;;;13.20;99.90;;;;;;4826277;29;20202;-89
2022/06/01 01:03:51;;;;;;;2.10;0.70;;;13.20;99.90;;;;;;4823019;29;20031;-87
2022/06/01 01:06:24;;;;;;;1.35;0.52;;;13.30;99.90;;;;;;4831178;29;20496;-89
2022/06/01 01:08:51;;;;;;;1.23;0.50;;;13.20;99.90;;;;;;4831272;29;20049;-88
2022/06/01 01:11:30;;;;;;;1.05;0.60;;;13.20;99.90;;;;;;4827294;29;20034;-88
2022/06/01 01:13:57;;;;;;;2.30;0.80;;;13.30;99.90;;;;;;4834028;29;20042;-89
2022/06/01 01:16:24;;;;;;;2.20;0.73;;;13.10;99.90;;;;;;4823793;29;20030;-89
2022/06/01 01:18:51;;;;;;;1.92;0.80;;;12.60;99.90;;;;;;4831435;29;20026;-88
2022/06/01 01:21:22;;;;;;;2.35;0.80;;;13.50;99.90;;;;;;4826962;29;20062;-88
2022/06/01 01:23:54;;;;;;;1.73;0.77;;;13.10;99.90;;;;;;4827782;29;20113;-88
2022/06/01 01:26:22;;;;;;;1.70;0.70;;;13.00;99.90;;;;;;4828745;29;20050;-88
2022/06/01 01:28:47;;;;;;;2.95;0.77;;;13.50;99.90;;;;;;4831975;29;20452;-89
2022/06/01 01:31:22;;;;;;;1.88;0.70;;;13.50;99.90;;;;;;4830188;29;20045;-88
2022/06/01 01:33:50;;;;;;;0.73;0.45;;;13.10;99.90;;;;;;4829650;29;20034;-89
2022/06/01 01:36:20;;;;;;;1.50;0.70;;;12.90;99.90;;;;;;4832957;29;20041;-89
2022/06/01 01:38:49;;;;;;;2.40;0.80;;;13.20;99.90;;;;;;4828149;29;20034;-89
2022/06/01 01:41:23;;;;;;;3.08;0.73;;;13.10;99.90;;;;;;4836486;29;20504;-89
2022/06/01 01:44:07;;;;;;;1.58;0.70;;;13.80;99.90;;;;;;4836382;29;20026;-88
2022/06/01 01:46:33;;;;;;;1.30;0.57;;;13.50;99.90;;;;;;4838518;29;20440;-89
2022/06/01 06:59:15;;;;;;;1.25;0.68;;;16.90;99.90;;;;;;4839847;29;19924;-89
2022/06/01 07:01:41;;;;;;;1.40;0.50;;;17.10;99.90;;;;;;4834287;29;20036;-89
2022/06/01 07:04:07;;;;;;;2.15;1.10;;;17.20;99.90;;;;;;4840465;29;20033;-88
2022/06/01 07:06:43;;;;;;;2.13;0.52;;;17.00;99.90;;;;;;4840648;29;20038;-88
2022/06/01 07:09:09;;;;;;;2.97;0.80;;;17.20;99.90;;;;;;4827356;29;20133;-89
2022/06/01 07:11:41;;;;;;;1.02;0.50;;;17.60;99.90;;;;;;4838906;29;20082;-89
2022/06/01 07:14:09;;;;;;;1.27;0.60;;;17.60;99.90;;;;;;4839936;29;20030;-89
2022/06/01 07:16:35;;;;;;;1.08;0.60;;;18.40;99.90;;;;;;4838595;29;20525;-89
2022/06/01 07:19:08;;;;;;;1.40;0.60;;;17.80;99.90;;;;;;4837887;29;20030;-89
2022/06/01 07:21:39;;;;;;;1.00;0.45;;;18.00;99.90;;;;;;4839615;29;20030;-88
2022/06/01 07:24:09;;;;;;;1.95;0.80;;;18.00;99.90;;;;;;4835971;29;20026;-88
2022/06/01 07:26:44;;;;;;;1.30;0.50;;;18.10;99.90;;;;;;4841308;29;20038;-89
2022/06/01 07:29:12;;;;;;;1.83;0.80;;;18.10;99.90;;;;;;4838051;29;20033;-89
2022/06/01 07:31:44;;;;;;;1.15;0.52;;;19.00;99.90;;;;;;4837529;29;20065;-88
2022/06/01 07:34:13;;;;;;;1.48;0.50;;;18.50;99.90;;;;;;4843714;29;20034;-89
2022/06/01 07:36:41;;;;;;;2.03;0.70;;;18.40;99.90;;;;;;4840936;29;20048;-89
2022/06/01 07:45:00;;;;;;;0.85;0.50;;;19.10;99.90;;;;;;4863536;29;20093;-89
2022/06/01 07:47:27;;;;;;;3.03;0.50;;;19.00;99.90;;;;;;4858822;29;20097;-89
2022/06/01 07:50:14;;;;;;;0.95;0.47;;;19.10;99.90;;;;;;4871740;24;20063;-89
2022/06/01 07:52:48;;;;;;;1.25;0.50;;;19.50;99.90;;;;;;4834955;29;20034;-88
2022/06/01 07:55:20;;;;;;;1.15;0.60;;;19.30;99.70;;;;;;4847878;29;20112;-89
2022/06/01 07:57:54;;;;;;;1.35;0.65;;;19.30;99.90;;;;;;4834263;29;20026;-89
2022/06/01 08:01:13;;;;;;;;;;;;;;;;;;;;;
2022/06/01 08:03:51;;;;;;;1.13;0.50;;;19.50;98.30;;;;;;4814920;29;20424;-89
2022/06/01 08:06:55;;;;;;;1.48;0.60;;;19.70;98.60;;;;;;4814231;29;20066;-89
2022/06/01 08:09:36;;;;;;;0.70;0.35;;;19.90;97.60;;;;;;4814943;29;20133;-89
2022/06/01 08:18:49;;;;;;;1.27;0.40;;;20.10;96.60;;;;;;4797597;29;20031;-89
2022/06/01 08:21:23;;;;;;;0.77;0.40;;;20.00;97.00;;;;;;4783673;29;20039;-88
2022/06/01 08:24:17;;;;;;;0.73;0.32;;;20.10;96.10;;;;;;4807644;29;20759;-89
2022/06/01 08:27:40;;;;;;;0.75;0.20;;;21.00;93.80;;;;;;4833184;29;20046;-89
2022/06/01 08:30:58;;;;;;;0.95;0.30;;;20.60;92.10;;;;;;4798695;29;20398;-88
2022/06/01 08:37:03;;;;;;;0.63;0.22;;;21.20;92.20;;;;;;4816504;29;20081;-89
2022/06/01 08:41:01;;;;;;;0.68;0.30;;;21.70;90.80;;;;;;4793214;29;20034;-90
2022/06/01 08:43:44;;;;;;;1.10;0.30;;;21.40;90.60;;;;;;4793301;29;20035;-88
2022/06/01 08:46:26;;;;;;;0.38;0.20;;;21.40;89.70;;;;;;4779946;29;20051;-88
2022/06/01 09:04:00;;;;;;;;;;;;;;;;;;;;;
2022/06/01 09:07:25;;;;;;;1.08;0.20;;;21.70;85.70;;;;;;4821997;29;20046;-90
2022/06/01 09:10:47;;;;;;;;;;;;;;;;;;;;;
2022/06/01 09:13:56;;;;;;;1.92;0.40;;;20.90;84.00;;;;;;4816281;29;20488;-88
2022/06/01 09:17:02;;;;;;;0.80;0.30;;;20.70;83.60;;;;;;4819366;29;20099;-88
2022/06/01 09:22:56;;;;;;;;;;;;;;;;;;;;;
2022/06/01 09:25:56;;;;;;;0.70;0.30;;;22.20;81.50;;;;;;4815823;29;20030;-88
2022/06/01 09:28:48;;;;;;;1.05;0.63;;;22.80;81.60;;;;;;4816854;29;20034;-89
2022/06/01 09:31:39;;;;;;;1.20;0.40;;;22.10;78.40;;;;;;4815966;29;20070;-89
2022/06/01 09:34:47;;;;;;;0.88;0.25;;;21.10;78.40;;;;;;4812714;29;20034;-88
2022/06/01 09:37:34;;;;;;;0.30;0.28;;;21.40;79.10;;;;;;4814442;29;20038;-88
2022/06/01 09:40:36;;;;;;;1.25;0.50;;;21.30;78.50;;;;;;4826976;29;20018;-88
2022/06/01 09:43:25;;;;;;;1.02;0.30;;;21.40;77.30;;;;;;4819264;29;20095;-88
2022/06/01 09:45:58;;;;;;;0.50;0.20;;;21.40;77.90;;;;;;4819560;29;20080;-89
2022/06/01 09:49:04;;;;;;;1.85;0.20;;;21.70;77.40;;;;;;4821319;29;20399;-88
2022/06/01 09:52:12;;;;;;;0.52;0.20;;;21.50;75.90;;;;;;4847303;29;20045;-87
2022/06/01 09:54:51;;;;;;;0.90;0.30;;;22.10;76.20;;;;;;4839461;29;20029;-87
2022/06/01 09:57:38;;;;;;;0.80;0.10;;;21.90;75.00;;;;;;4846897;29;20488;-86
2022/06/01 10:07:34;;;;;;;;;;;;;;;;;;;;;
2022/06/01 10:10:24;;;;;;;0.55;0.30;;;22.50;74.30;;;;;;4823494;29;19912;-89
2022/06/01 10:13:06;;;;;;;0.35;0.10;;;22.70;72.30;;;;;;4823460;29;20048;-88
2022/06/01 10:15:58;;;;;;;2.13;0.20;;;22.80;72.90;;;;;;4823360;29;20027;-88
2022/06/01 10:18:31;;;;;;;;;;;23.00;72.20;;;;;;4817906;29;20080;-88
2022/06/01 10:24:28;;;;;;;0.57;0.20;;;22.90;71.00;;;;;;4829099;29;20042;-88
2022/06/01 10:27:18;;;;;;;;;;;;;;;;;;;;;
2022/06/01 10:33:40;;;;;;;0.55;0.17;;;22.80;70.00;;;;;;4855865;29;20515;-88
2022/06/01 10:36:31;;;;;;;0.80;0.20;;;22.60;70.40;;;;;;4839808;29;20067;-88
2022/06/01 10:39:10;;;;;;;0.43;0.20;;;22.70;71.40;;;;;;4840672;29;20107;-88
2022/06/01 10:42:17;;;;;;;2.15;0.47;;;22.70;69.30;;;;;;4830934;29;20038;-88
2022/06/01 10:45:25;;;;;;;1.10;0.30;;;23.00;68.40;;;;;;4822775;29;20034;-89
2022/06/01 10:48:40;;;;;;;0.50;0.20;;;23.30;67.80;;;;;;4823585;29;20026;-89
2022/06/01 10:51:38;;;;;;;1.33;0.20;;;22.90;66.40;;;;;;4822119;29;20027;-89
2022/06/01 10:58:07;;;;;;;0.35;0.20;;;23.40;66.10;;;;;;4823366;29;20609;-89
2022/06/01 11:01:15;;;;;;;;;;;;;;;;;;;;;
2022/06/01 11:04:24;;;;;;;0.28;0.10;;;23.90;64.50;;;;;;4819868;29;20030;-87
2022/06/01 11:07:33;;;;;;;0.35;0.20;;;23.40;65.80;;;;;;4822682;29;20030;-88
2022/06/01 11:10:10;;;;;;;0.90;0.30;;;23.10;67.20;;;;;;4820580;29;20450;-88
2022/06/01 11:13:38;;;;;;;0.40;0.17;;;23.60;66.50;;;;;;4819158;29;20019;-88
2022/06/01 11:16:46;;;;;;;0.82;0.20;;;23.60;64.80;;;;;;4823868;29;20131;-88
2022/06/01 11:20:10;;;;;;;0.80;0.20;;;23.10;65.90;;;;;;4820519;29;20110;-88
2022/06/01 11:23:14;;;;;;;0.55;0.20;;;23.60;65.40;;;;;;4820258;29;20034;-89
2022/06/01 11:25:56;;;;;;;0.93;0.20;;;23.70;63.90;;;;;;4819983;29;20032;-89
2022/06/01 11:28:51;;;;;;;0.77;0.30;;;23.80;65.20;;;;;;4820769;29;20094;-88
2022/06/01 11:34:29;;;;;;;0.90;0.30;;;24.60;62.20;;;;;;4815576;29;20103;-89
2022/06/01 11:37:26;;;;;;;0.95;0.22;;;24.40;62.20;;;;;;4824385;29;20023;-88
2022/06/01 11:40:29;;;;;;;1.25;0.30;;;24.30;63.00;;;;;;4834720;29;20038;-88
2022/06/01 11:43:04;;;;;;;0.80;0.40;;;25.20;60.50;;;;;;4820825;29;20030;-88
2022/06/01 11:45:57;;;;;;;0.40;0.20;;;25.70;60.70;;;;;;4822464;29;20034;-88
2022/06/01 11:48:30;;;;;;;0.85;0.20;;;25.80;60.10;;;;;;4824912;29;20022;-87
2022/06/01 11:51:15;;;;;;;0.30;0.10;;;25.60;61.40;;;;;;4818232;29;20471;-88
2022/06/01 11:54:11;;;;;;;0.70;0.20;;;24.80;59.90;;;;;;4820872;29;20099;-88
2022/06/01 11:57:16;;;;;;;0.75;0.28;;;24.00;59.60;;;;;;4833532;29;20050;-88
2022/06/01 12:00:06;;;;;;;1.38;0.40;;;24.70;60.10;;;;;;4820608;29;20033;-88
2022/06/01 12:02:40;;;;;;;2.72;0.20;;;25.10;61.00;;;;;;4819237;29;20034;-88
2022/06/01 12:05:20;;;;;;;0.45;0.20;;;25.60;60.50;;;;;;4821013;29;20133;-89
2022/06/01 12:07:52;;;;;;;0.30;0.10;;;26.40;59.90;;;;;;4821081;29;20022;-89
2022/06/01 12:10:28;;;;;;;0.65;0.20;;;27.00;59.40;;;;;;4820993;29;20034;-88
2022/06/01 12:13:27;;;;;;;1.05;0.20;;;27.10;60.20;;;;;;4820482;29;20038;-89
2022/06/01 12:16:22;;;;;;;0.28;0.10;;;26.40;56.60;;;;;;4822310;29;20031;-89
2022/06/01 12:19:29;;;;;;;0.90;0.10;;;26.10;57.00;;;;;;4821277;29;20029;-89
2022/06/01 12:28:30;;;;;;;0.77;0.30;;;26.00;56.60;;;;;;4819212;29;20049;-89
2022/06/01 12:28:51;;;;;;;0.63;0.20;;;24.90;59.80;;;;;;4813806;29;20108;-89
2022/06/01 12:32:06;;;;;;;0.63;0.22;;;25.50;58.90;;;;;;4815778;29;20031;-89
2022/06/01 12:35:43;;;;;;;0.30;0.10;;;26.00;59.50;;;;;;4809846;29;20030;-90
2022/06/01 12:38:39;;;;;;;1.33;0.20;;;26.40;58.50;;;;;;4810599;29;20113;-90
2022/06/01 12:44:21;;;;;;;0.30;0.20;;;25.50;58.00;;;;;;4819281;29;20780;-89
2022/06/01 12:46:56;;;;;;;0.30;0.17;;;25.40;60.00;;;;;;4819886;29;20026;-89
2022/06/01 12:49:35;;;;;;;0.60;0.20;;;25.70;59.70;;;;;;4820309;29;20433;-89
2022/06/01 12:52:31;;;;;;;0.82;0.30;;;25.40;60.10;;;;;;4818706;29;20046;-89
2022/06/01 12:55:19;;;;;;;1.35;0.30;;;26.60;59.90;;;;;;4821385;29;20041;-89
2022/06/01 12:57:58;;;;;;;0.38;0.20;;;25.70;59.70;;;;;;4816034;29;20046;-88
2022/06/01 13:00:47;;;;;;;0.63;0.30;;;25.10;58.90;;;;;;4820014;29;20031;-88
2022/06/01 13:03:29;;;;;;;0.30;0.28;;;24.90;59.10;;;;;;4812429;29;20035;-87
2022/06/01 13:06:04;;;;;;;5.97;0.63;;;24.60;59.70;;;;;;4818742;29;20033;-89
2022/06/01 13:08:39;;;;;;;1.08;0.20;;;24.50;60.90;;;;;;4820363;29;20034;-88
2022/06/01 13:11:26;;;;;;;0.77;0.30;;;24.70;61.30;;;;;;4820045;29;20033;-88
2022/06/01 13:13:51;;;;;;;0.70;0.30;;;25.30;60.20;;;;;;4819243;29;20091;-89
2022/06/01 13:16:20;;;;;;;0.60;0.22;;;25.30;58.80;;;;;;4819922;29;20053;-89
2022/06/01 13:18:46;;;;;;;0.75;0.30;;;25.40;59.30;;;;;;4820202;29;20555;-88
2022/06/01 13:21:32;;;;;;;0.40;0.20;;;25.10;59.70;;;;;;4820532;29;20122;-89
2022/06/01 13:24:07;;;;;;;0.30;0.20;;;25.40;60.40;;;;;;4819544;29;20022;-88
2022/06/01 13:26:44;;;;;;;0.73;0.30;;;25.10;60.80;;;;;;4819128;29;20118;-89
2022/06/01 13:29:32;;;;;;;1.23;0.32;;;24.70;61.40;;;;;;4823672;29;20034;-88
2022/06/01 13:32:02;;;;;;;0.40;0.20;;;24.10;62.00;;;;;;4822028;29;20022;-88
2022/06/01 13:34:48;;;;;;;0.73;0.30;;;23.70;63.10;;;;;;4824199;29;20065;-87
2022/06/01 13:38:15;;;;;;;;;;;;;;;;;;;;;
2022/06/01 14:08:48;;;;;;;4.03;0.50;;;24.20;65.00;;;;;;4845975;29;20062;-92
2022/06/01 14:11:28;;;;;;;1.10;0.32;;;24.20;65.60;;;;;;4839412;29;20506;-90
2022/06/01 14:14:04;;;;;;;0.82;0.40;;;23.90;65.30;;;;;;4829569;29;20034;-91
2022/06/01 14:17:01;;;;;;;0.88;0.30;;;23.20;65.30;;;;;;4825836;29;20117;-91
2022/06/01 14:19:41;;;;;;;1.00;0.40;;;24.10;65.60;;;;;;4822630;29;20026;-91
2022/06/01 14:22:26;;;;;;;1.37;0.20;;;23.90;66.20;;;;;;4810968;29;20113;-91
2022/06/01 14:28:31;;;;;;;2.28;0.40;;;25.00;64.80;;;;;;4852234;29;20049;-91
2022/06/01 14:31:13;;;;;;;1.25;0.30;;;24.90;62.90;;;;;;4835703;29;20038;-90
2022/06/01 14:33:58;;;;;;;0.63;0.28;;;24.20;63.00;;;;;;4819373;29;20031;-90
2022/06/01 14:36:30;;;;;;;2.33;0.40;;;24.60;63.60;;;;;;4812368;29;20048;-90
2022/06/01 14:39:08;;;;;;;1.35;0.30;;;24.30;64.70;;;;;;4814979;29;20030;-90
2022/06/01 14:41:44;;;;;;;0.50;0.28;;;24.40;65.40;;;;;;4810501;29;20046;-90
2022/06/01 14:47:54;;;;;;;2.22;0.40;;;26.10;62.00;;;;;;4807509;29;20050;-90
2022/06/01 14:51:11;;;;;;;3.78;0.32;;;26.90;61.10;;;;;;4819238;29;20774;-90
2022/06/01 14:54:00;;;;;;;0.85;0.30;;;27.40;61.60;;;;;;4812999;29;20062;-89
2022/06/01 14:56:38;;;;;;;0.95;0.40;;;27.40;60.80;;;;;;4803839;29;20145;-90
2022/06/01 15:07:03;;;;;;;2.42;0.20;;;26.30;61.70;;;;;;4810002;29;20043;-89
2022/06/01 15:09:47;;;;;;;0.50;0.20;;;25.90;62.50;;;;;;4798555;29;20144;-89
2022/06/01 15:12:50;;;;;;;0.50;0.30;;;25.40;61.70;;;;;;4803701;29;20469;-89
2022/06/01 15:15:51;;;;;;;1.00;0.35;;;25.00;61.80;;;;;;4828118;29;20037;-90
2022/06/01 15:18:20;;;;;;;0.50;0.20;;;24.70;62.80;;;;;;4816108;29;20043;-87
2022/06/01 15:25:24;;;;;;;;;;;;;;;;;;;;;
2022/06/01 15:28:15;;;;;;;0.90;0.40;;;24.50;63.50;;;;;;4789121;29;20034;-90
2022/06/01 15:52:51;;;;;;;1.35;0.30;;;24.70;62.80;;;;;;3219221;27;20061;-89
2022/06/01 15:55:35;;;;;;;1.27;0.50;;;24.00;64.70;;;;;;4825398;29;20504;-90
2022/06/01 16:01:33;;;;;;;0.75;0.30;;;24.20;64.60;;;;;;4826437;29;20428;-89
2022/06/01 16:04:12;;;;;;;0.50;0.20;;;24.30;65.60;;;;;;4831673;29;20039;-89
2022/06/01 16:06:58;;;;;;;0.90;0.25;;;23.90;65.00;;;;;;4825647;29;20042;-90
2022/06/01 16:10:05;;;;;;;0.35;0.25;;;23.80;66.30;;;;;;4829911;29;20057;-90
2022/06/01 16:12:42;;;;;;;0.70;0.30;;;23.40;64.70;;;;;;4834368;29;20038;-89
2022/06/01 16:15:43;;;;;;;1.00;0.40;;;24.10;64.20;;;;;;4837221;29;20112;-89
2022/06/01 16:18:22;;;;;;;0.60;0.30;;;24.20;64.00;;;;;;4835439;29;20045;-89
2022/06/01 16:20:51;;;;;;;1.40;0.28;;;24.30;64.80;;;;;;4831917;29;20225;-89
2022/06/01 16:23:33;;;;;;;1.92;0.50;;;24.20;65.00;;;;;;4836784;29;20036;-90
2022/06/01 16:26:02;;;;;;;0.60;0.30;;;24.30;65.10;;;;;;4835482;29;20145;-89
2022/06/01 16:28:28;;;;;;;1.42;0.30;;;24.40;64.40;;;;;;4836584;29;20069;-89
2022/06/01 16:30:54;;;;;;;0.85;0.40;;;24.30;65.00;;;;;;4833765;29;20134;-90
2022/06/01 16:33:36;;;;;;;2.67;0.40;;;23.90;64.80;;;;;;4822128;29;20269;-87
2022/06/01 16:36:53;;;;;;;1.08;0.30;;;24.20;65.00;;;;;;4831854;29;20034;-88
2022/06/01 16:43:32;;;;;;;1.92;0.35;;;23.90;65.60;;;;;;4831613;29;20506;-88
2022/06/01 16:47:05;;;;;;;0.65;0.30;;;23.80;64.80;;;;;;4842878;29;20050;-89
2022/06/01 16:57:16;;;;;;;1.88;0.30;;;23.50;65.90;;;;;;4840645;29;20468;-89
2022/06/01 17:00:08;;;;;;;1.25;0.30;;;23.30;66.20;;;;;;4834084;29;20133;-88
2022/06/01 17:05:55;;;;;;;1.05;0.30;;;22.90;66.20;;;;;;4966644;23;20062;-88
2022/06/01 17:09:12;;;;;;;;;;;;;;;;;;;;;
2022/06/01 17:15:55;;;;;;;;;;;;;;;;;;;;;
2022/06/01 17:18:47;;;;;;;0.80;0.40;;;22.40;67.60;;;;;;4804296;29;20033;-88
2022/06/01 17:21:51;;;;;;;1.10;0.20;;;22.40;68.30;;;;;;4789301;29;20022;-88
2022/06/01 17:25:04;;;;;;;2.17;0.40;;;22.20;68.70;;;;;;4807865;29;20716;-88
2022/06/01 17:27:29;;;;;;;0.80;0.40;;;22.70;69.10;;;;;;4810963;29;20099;-88
2022/06/01 17:30:01;;;;;;;1.75;0.50;;;22.00;69.40;;;;;;4815240;29;20015;-88
2022/06/01 17:32:54;;;;;;;0.88;0.20;;;22.10;69.50;;;;;;4804686;29;20032;-89
2022/06/01 17:36:11;;;;;;;3.50;0.30;;;21.80;68.70;;;;;;4805512;29;20044;-89
2022/06/01 17:38:37;;;;;;;0.52;0.30;;;21.70;68.50;;;;;;4791954;29;20027;-91
2022/06/01 17:52:29;;;;;;;0.60;0.20;;;21.20;69.10;;;;;;4838243;29;20081;-88
2022/06/01 17:55:07;;;;;;;0.50;0.20;;;21.20;69.10;;;;;;4826576;29;20407;-87
2022/06/01 17:57:49;;;;;;;0.88;0.22;;;21.10;69.30;;;;;;4831741;29;20510;-88
2022/06/01 18:00:42;;;;;;;0.60;0.20;;;20.90;69.90;;;;;;4848966;29;20033;-87
2022/06/01 18:03:38;;;;;;;0.50;0.20;;;20.90;69.60;;;;;;4836612;29;20579;-88
2022/06/01 18:06:07;;;;;;;0.70;0.30;;;20.90;68.90;;;;;;4833503;29;20050;-89
2022/06/01 18:08:42;;;;;;;0.52;0.20;;;20.80;68.80;;;;;;4834663;29;20480;-88
2022/06/01 18:11:11;;;;;;;0.70;0.30;;;20.80;69.20;;;;;;4830429;29;20096;-88
2022/06/01 18:13:48;;;;;;;0.90;0.30;;;20.80;69.40;;;;;;4840225;29;20036;-87
2022/06/01 18:16:35;;;;;;;0.28;0.20;;;21.10;69.30;;;;;;4834129;29;20030;-86
2022/06/01 18:19:05;;;;;;;0.90;0.60;;;20.70;69.60;;;;;;4842043;29;20040;-89
2022/06/01 18:21:42;;;;;;;2.00;0.30;;;20.60;69.80;;;;;;4830682;29;20053;-88
2022/06/01 18:24:10;;;;;;;2.65;0.38;;;20.50;69.90;;;;;;4825302;29;20041;-88
2022/06/01 18:26:36;;;;;;;1.75;0.52;;;20.40;70.50;;;;;;4831936;29;20037;-87
2022/06/01 18:29:04;;;;;;;0.80;0.30;;;20.40;70.90;;;;;;4829192;29;20038;-87
2022/06/01 18:31:54;;;;;;;1.45;0.40;;;20.30;70.50;;;;;;4830468;29;20054;-87
2022/06/01 18:34:28;;;;;;;0.90;0.30;;;20.30;70.80;;;;;;4827822;29;20139;-87
2022/06/01 18:36:54;;;;;;;0.80;0.30;;;20.20;71.00;;;;;;4828907;29;20042;-87
2022/06/01 18:39:25;;;;;;;1.23;0.40;;;20.00;71.20;;;;;;4829137;29;20022;-89
2022/06/01 18:41:54;;;;;;;2.33;0.93;;;20.10;71.70;;;;;;4833422;29;20026;-90
2022/06/01 18:44:28;;;;;;;1.55;0.30;;;19.70;71.20;;;;;;4831090;29;20296;-89
2022/06/01 18:46:54;;;;;;;0.52;0.30;;;19.90;71.50;;;;;;4825215;29;20385;-89
2022/06/01 18:49:20;;;;;;;0.52;0.30;;;19.80;71.80;;;;;;4831189;29;20036;-88
2022/06/01 18:51:51;;;;;;;0.80;0.40;;;19.70;72.10;;;;;;4830952;29;20042;-88
2022/06/01 18:54:20;;;;;;;1.08;0.32;;;19.20;71.80;;;;;;4821609;29;21414;-87
2022/06/01 18:56:48;;;;;;;2.35;0.40;;;19.70;72.00;;;;;;4826887;29;20046;-89
2022/06/01 19:01:59;;;;;;;0.38;0.20;;;19.60;72.30;;;;;;4831028;29;20042;-89
2022/06/01 19:04:26;;;;;;;0.60;0.28;;;19.60;72.20;;;;;;4842650;29;20041;-88
2022/06/01 19:06:54;;;;;;;1.38;0.40;;;19.50;72.50;;;;;;4831868;29;20038;-90
2022/06/01 19:09:24;;;;;;;0.75;0.47;;;19.70;72.80;;;;;;4831030;29;20046;-90
2022/06/01 19:11:56;;;;;;;0.35;0.22;;;18.90;72.20;;;;;;4832105;29;20384;-88
2022/06/01 19:14:29;;;;;;;0.60;0.30;;;19.50;72.60;;;;;;4835394;29;20141;-90
2022/06/01 19:17:06;;;;;;;1.15;0.40;;;19.40;72.60;;;;;;4834545;29;20038;-89
2022/06/01 19:19:36;;;;;;;1.30;0.40;;;19.30;72.90;;;;;;4838520;29;20026;-89
2022/06/01 19:22:22;;;;;;;0.73;0.30;;;19.30;73.50;;;;;;4835305;29;20109;-88
2022/06/01 19:24:56;;;;;;;0.98;0.40;;;19.20;73.80;;;;;;4833311;29;20026;-89
2022/06/01 19:27:43;;;;;;;0.75;0.20;;;19.20;73.20;;;;;;4828543;29;20120;-89
2022/06/01 19:30:51;;;;;;;0.77;0.25;;;18.60;73.40;;;;;;4835210;29;20030;-89
2022/06/01 19:34:09;;;;;;;1.50;0.30;;;19.30;74.40;;;;;;4825683;29;20760;-89
2022/06/01 19:47:11;;;;;;;0.75;0.30;;;18.90;74.80;;;;;;4829396;29;20526;-90
2022/06/01 19:57:07;;;;;;;3.13;0.38;;;18.60;76.00;;;;;;4813413;29;20648;-88
2022/06/01 20:07:27;;;;;;;1.02;0.40;;;18.40;76.30;;;;;;4836489;29;20050;-89
2022/06/01 20:16:34;;;;;;;1.08;0.40;;;18.10;77.60;;;;;;4827992;29;20444;-89
2022/06/01 20:25:39;;;;;;;1.77;0.60;;;18.10;77.10;;;;;;4812881;29;20079;-89
2022/06/01 20:28:25;;;;;;;1.05;0.55;;;18.10;76.80;;;;;;4810475;29;20076;-89
2022/06/01 20:34:20;;;;;;;1.02;0.40;;;18.00;76.60;;;;;;4815551;29;20038;-89
2022/06/01 20:40:50;;;;;;;1.10;0.38;;;18.20;76.90;;;;;;4820630;29;20137;-90
2022/06/01 20:43:30;;;;;;;1.65;0.70;;;18.20;76.50;;;;;;4808378;29;20043;-90
2022/06/01 20:58:16;;;;;;;1.30;0.47;;;18.00;77.70;;;;;;4945276;23;20081;-90
2022/06/01 21:04:17;;;;;;;1.98;0.38;;;18.10;78.70;;;;;;5039941;24;20432;-89
2022/06/01 21:18:17;;;;;;;1.73;0.40;;;18.00;78.20;;;;;;4819615;29;20466;-89
2022/06/01 21:21:23;;;;;;;0.82;0.25;;;18.10;77.80;;;;;;4823632;29;20134;-89
2022/06/01 21:24:17;;;;;;;2.47;0.30;;;18.10;78.10;;;;;;4854529;24;20063;-89
2022/06/01 21:31:03;;;;;;;;;;;;;;;;;;;;;
2022/06/01 21:34:02;;;;;;;0.40;0.30;;;18.00;78.00;;;;;;4806753;24;20076;-90
2022/06/01 21:36:54;;;;;;;1.15;0.30;;;18.10;77.90;;;;;;4811301;29;20504;-89
2022/06/01 21:40:12;;;;;;;;;;;;;;;;;;;;;
2022/06/01 21:45:54;;;;;;;0.57;0.20;;;17.90;77.20;;;;;;4819287;29;20045;-89
2022/06/01 21:52:09;;;;;;;;;;;;;;;;;;;;;
2022/06/01 21:55:09;;;;;;;0.40;0.20;;;17.80;77.30;;;;;;4817193;29;20042;-90
2022/06/01 21:57:57;;;;;;;;;;;;;;;;;;;;;
2022/06/01 22:01:01;;;;;;;0.63;0.20;;;17.80;77.60;;;;;;4818274;29;20045;-90
2022/06/01 22:06:51;;;;;;;0.57;0.30;;;17.70;76.90;;;;;;4826644;29;20037;-90
2022/06/01 22:09:31;;;;;;;2.13;0.40;;;17.60;77.50;;;;;;4831184;29;20652;-90
2022/06/01 22:12:55;;;;;;;1.33;0.20;;;17.50;76.90;;;;;;4822374;29;20128;-90
2022/06/01 22:15:33;;;;;;;0.55;0.28;;;17.50;76.90;;;;;;4827978;29;20122;-90
2022/06/01 22:18:11;;;;;;;0.40;0.20;;;17.40;77.10;;;;;;4824751;29;20516;-90
2022/06/01 22:20:56;;;;;;;0.75;0.30;;;17.40;77.00;;;;;;4823328;29;20039;-90
2022/06/01 22:23:56;;;;;;;0.50;0.20;;;17.30;76.90;;;;;;4828427;29;20034;-90
2022/06/01 22:32:35;;;;;;;0.95;0.30;;;16.60;77.80;;;;;;4823915;29;20049;-90
2022/06/01 22:38:54;;;;;;;0.52;0.15;;;17.00;78.50;;;;;;4820558;29;20045;-91
2022/06/01 22:47:29;;;;;;;;;;;;;;;;;;;;;
2022/06/01 22:53:51;;;;;;;5.05;0.82;;;17.00;78.40;;;;;;4821338;29;20126;-91
2022/06/01 23:03:24;;;;;;;0.63;0.20;;;16.90;77.90;;;;;;4819554;29;19913;-91
2022/06/01 23:06:38;;;;;;;0.57;0.20;;;17.60;78.40;;;;;;4824417;29;20121;-90
2022/06/01 23:13:20;;;;;;;2.15;0.20;;;16.80;77.30;;;;;;4838612;29;20034;-90
2022/06/01 23:16:30;;;;;;;;;;;;;;;;;;;;;
2022/06/01 23:19:32;;;;;;;;;;;;;;;;;;;;;
2022/06/01 23:22:04;;;;;;;0.28;0.13;;;16.60;78.10;;;;;;4831457;29;20253;-90
2022/06/01 23:25:06;;;;;;;0.63;0.20;;;16.50;78.30;;;;;;4823560;29;20061;-90
2022/06/01 23:27:35;;;;;;;0.90;0.30;;;16.40;78.80;;;;;;4835907;29;20042;-90
2022/06/01 23:30:20;;;;;;;0.90;0.20;;;16.10;79.80;;;;;;4820579;29;20043;-91
2022/06/01 23:40:06;;;;;;;;;;;16.90;81.00;;;;;;4821881;29;20050;-90
2022/06/01 23:43:29;;;;;;;0.28;0.10;;;15.90;81.20;;;;;;4821524;29;19917;-90
2022/06/01 23:46:25;;;;;;;0.10;0.10;;;16.30;81.70;;;;;;4820095;29;20042;-90
2022/06/01 23:49:32;;;;;;;0.15;0.05;;;15.70;82.00;;;;;;4820816;29;20057;-90
2022/06/01 23:55:14;;;;;;;0.60;0.20;;;15.70;82.70;;;;;;4840013;24;20522;-90
2022/06/01 23:58:11;;;;;;;0.57;0.17;;;15.60;82.90;;;;;;4815294;29;20082;-90
